createdAt,value
2023-09-14T00:00:31.934Z,5.40
2023-09-14T00:03:00.508Z,5.63
2023-09-14T00:05:27.593Z,5.65
2023-09-14T00:07:54.414Z,6.45
2023-09-14T00:10:21.401Z,5.80
2023-09-14T00:12:48.351Z,6.55
2023-09-14T00:15:15.254Z,7.82
2023-09-14T00:17:42.115Z,7.82
2023-09-14T00:20:11.124Z,8.82
2023-09-14T00:22:37.998Z,8.63
2023-09-14T00:25:05.400Z,7.28
2023-09-14T00:27:32.326Z,6.90
2023-09-14T00:29:59.170Z,7.45
2023-09-14T00:32:26.101Z,7.10
2023-09-14T00:34:53.002Z,7.38
2023-09-14T00:37:19.900Z,7.18
2023-09-14T00:39:46.758Z,7.90
2023-09-14T00:42:13.585Z,8.43
2023-09-14T00:44:40.434Z,8.52
2023-09-14T00:47:07.299Z,8.60
2023-09-14T00:49:34.175Z,10.20
2023-09-14T00:52:01.221Z,10.85
2023-09-14T00:54:28.023Z,9.35
2023-09-14T00:56:54.914Z,8.43
2023-09-14T00:59:21.793Z,10.15
2023-09-14T01:01:49.913Z,9.32
2023-09-14T01:04:16.968Z,9.15
2023-09-14T01:06:44.184Z,8.10
2023-09-14T01:09:11.228Z,9.10
2023-09-14T01:11:38.062Z,8.70
2023-09-14T01:14:14.186Z,9.00
2023-09-14T01:17:09.674Z,8.15
2023-09-14T01:20:02.466Z,9.50
2023-09-14T01:22:43.364Z,9.55
2023-09-14T01:25:31.703Z,9.13
2023-09-14T01:28:08.791Z,9.43
2023-09-14T01:30:35.995Z,9.27
2023-09-14T01:33:02.933Z,9.55
2023-09-14T01:35:33.881Z,9.40
2023-09-14T01:38:03.964Z,8.90
2023-09-14T01:40:34.578Z,9.45
2023-09-14T01:43:03.225Z,9.43
2023-09-14T01:45:31.829Z,9.88
2023-09-14T01:47:58.887Z,9.55
2023-09-14T01:50:25.803Z,8.95
2023-09-14T01:52:53.618Z,9.15
2023-09-14T01:55:20.515Z,9.60
2023-09-14T01:57:47.837Z,10.45
2023-09-14T02:00:14.896Z,10.35
2023-09-14T02:02:41.843Z,10.85
2023-09-14T02:05:09.417Z,10.98
2023-09-14T02:07:36.300Z,12.23
2023-09-14T02:10:03.157Z,14.43
2023-09-14T02:12:29.991Z,15.20
2023-09-14T02:14:56.826Z,14.13
2023-09-14T02:17:23.634Z,11.70
2023-09-14T02:19:50.463Z,12.57
2023-09-14T02:22:17.296Z,12.07
2023-09-14T02:24:44.107Z,12.35
2023-09-14T02:27:10.904Z,11.23
2023-09-14T02:29:37.724Z,11.35
2023-09-14T02:32:05.424Z,10.45
2023-09-14T02:34:32.462Z,9.55
2023-09-14T02:36:59.399Z,9.98
2023-09-14T02:39:26.565Z,10.23
2023-09-14T02:41:53.447Z,11.20
2023-09-14T02:44:20.392Z,12.57
2023-09-14T02:46:48.108Z,11.68
2023-09-14T02:49:15.061Z,10.68
2023-09-14T02:51:42.031Z,10.13
2023-09-14T02:54:08.880Z,10.35
2023-09-14T02:56:35.691Z,9.73
2023-09-14T02:59:03.379Z,7.95
2023-09-14T03:01:31.164Z,8.15
2023-09-14T03:03:58.496Z,7.65
2023-09-14T03:06:25.795Z,8.38
2023-09-14T03:08:52.639Z,9.00
2023-09-14T03:11:20.361Z,8.38
2023-09-14T03:13:47.189Z,7.55
2023-09-14T03:16:14.492Z,8.23
2023-09-14T03:18:41.445Z,7.65
2023-09-14T03:21:26.174Z,7.53
2023-09-14T03:23:53.323Z,8.27
2023-09-14T03:26:20.563Z,7.90
2023-09-14T03:28:50.249Z,8.32
2023-09-14T03:31:18.169Z,8.02
2023-09-14T03:33:47.662Z,8.25
2023-09-14T03:36:16.739Z,9.63
2023-09-14T03:38:44.242Z,10.45
2023-09-14T03:41:13.153Z,9.90
2023-09-14T03:43:43.275Z,10.23
2023-09-14T03:46:11.617Z,11.40
2023-09-14T03:48:38.641Z,10.65
2023-09-14T03:51:05.667Z,10.10
2023-09-14T03:53:32.451Z,10.15
2023-09-14T03:56:03.680Z,8.30
2023-09-14T03:58:32.270Z,8.98
2023-09-14T04:01:00.404Z,9.75
2023-09-14T04:03:27.825Z,10.00
2023-09-14T04:05:54.949Z,9.90
2023-09-14T04:08:23.655Z,8.85
2023-09-14T04:10:52.609Z,8.38
2023-09-14T04:13:27.293Z,8.93
2023-09-14T04:15:54.389Z,9.02
2023-09-14T04:18:21.522Z,8.95
2023-09-14T04:20:49.140Z,8.77
2023-09-14T04:23:16.182Z,8.57
2023-09-14T04:25:45.894Z,8.60
2023-09-14T04:28:17.439Z,8.40
2023-09-14T04:30:46.739Z,8.52
2023-09-14T04:33:14.497Z,9.15
2023-09-14T04:35:41.675Z,7.75
2023-09-14T04:38:09.269Z,8.20
2023-09-14T04:40:39.110Z,7.63
2023-09-14T04:43:06.742Z,7.75
2023-09-14T04:45:33.852Z,8.45
2023-09-14T04:48:01.491Z,7.90
2023-09-14T04:50:29.080Z,9.05
2023-09-14T04:52:56.253Z,8.90
2023-09-14T04:55:23.577Z,8.85
2023-09-14T04:57:50.525Z,8.82
2023-09-14T05:00:17.502Z,8.75
2023-09-14T05:02:44.614Z,8.48
2023-09-14T05:05:11.879Z,8.40
2023-09-14T05:07:40.288Z,9.25
2023-09-14T05:10:09.264Z,8.80
2023-09-14T05:12:36.396Z,10.38
2023-09-14T05:15:04.050Z,9.32
2023-09-14T05:17:31.115Z,9.02
2023-09-14T05:19:57.983Z,8.85
2023-09-14T05:22:26.813Z,8.85
2023-09-14T05:24:54.600Z,9.10
2023-09-14T05:27:21.657Z,9.07
2023-09-14T05:29:48.707Z,9.23
2023-09-14T05:32:15.539Z,9.88
2023-09-14T05:34:42.506Z,11.18
2023-09-14T05:37:09.792Z,10.10
2023-09-14T05:39:36.639Z,10.00
2023-09-14T05:42:04.016Z,10.20
2023-09-14T05:44:30.924Z,10.73
2023-09-14T05:46:57.863Z,10.00
2023-09-14T05:49:24.842Z,9.85
2023-09-14T05:51:51.891Z,9.50
2023-09-14T05:54:18.764Z,10.40
2023-09-14T05:56:45.604Z,10.25
2023-09-14T05:59:25.512Z,9.85
2023-09-14T06:01:57.210Z,9.43
2023-09-14T06:04:24.235Z,9.82
2023-09-14T06:06:51.106Z,9.25
2023-09-14T06:09:18.042Z,8.65
2023-09-14T06:11:45.429Z,8.10
2023-09-14T06:14:12.268Z,8.45
2023-09-14T06:16:39.213Z,10.13
2023-09-14T06:19:06.288Z,9.55
2023-09-14T06:21:34.808Z,9.30
2023-09-14T06:24:02.000Z,10.23
2023-09-14T06:26:29.806Z,10.07
2023-09-14T06:28:59.725Z,10.40
2023-09-14T06:31:27.542Z,11.05
2023-09-14T06:33:54.960Z,12.93
2023-09-14T06:36:22.102Z,12.70
2023-09-14T06:38:49.754Z,12.85
2023-09-14T06:41:17.293Z,13.90
2023-09-14T06:43:47.951Z,12.95
2023-09-14T06:46:15.424Z,12.48
2023-09-14T06:48:42.652Z,14.20
2023-09-14T06:51:09.623Z,13.80
2023-09-14T06:53:36.978Z,16.23
2023-09-14T06:56:08.462Z,16.92
2023-09-14T07:01:05.418Z,18.88
2023-09-14T07:03:34.438Z,18.17
2023-09-14T07:06:02.361Z,18.25
2023-09-14T07:08:29.247Z,19.25
2023-09-14T07:10:56.346Z,19.20
2023-09-14T07:13:24.196Z,18.58
2023-09-14T07:15:51.138Z,18.50
2023-09-14T07:18:32.045Z,20.45
2023-09-14T07:21:02.122Z,18.13
2023-09-14T07:23:32.216Z,17.98
2023-09-14T07:25:59.232Z,17.73
2023-09-14T07:28:26.129Z,17.77
2023-09-14T07:30:53.692Z,16.70
2023-09-14T07:33:21.300Z,17.17
2023-09-14T07:35:48.232Z,17.83
2023-09-14T07:38:15.136Z,37.55
2023-09-14T07:40:43.197Z,52.38
2023-09-14T07:43:13.648Z,19.20
2023-09-14T07:45:40.849Z,19.40
2023-09-14T07:48:08.762Z,20.98
2023-09-14T07:50:41.086Z,19.10
2023-09-14T07:53:09.436Z,18.95
2023-09-14T07:55:36.866Z,17.90
2023-09-14T07:58:04.096Z,18.50
2023-09-14T08:00:31.279Z,18.35
2023-09-14T08:02:58.205Z,18.75
2023-09-14T08:05:25.169Z,18.10
2023-09-14T08:07:53.524Z,30.73
2023-09-14T08:10:20.554Z,20.20
2023-09-14T08:12:47.470Z,19.20
2023-09-14T08:15:14.420Z,19.38
2023-09-14T08:17:41.298Z,22.35
2023-09-14T08:20:09.013Z,19.80
2023-09-14T08:22:35.869Z,20.00
2023-09-14T08:25:04.649Z,21.38
2023-09-14T08:27:31.495Z,20.55
2023-09-14T08:29:58.337Z,20.35
2023-09-14T08:32:25.446Z,18.65
2023-09-14T08:34:57.383Z,18.48
2023-09-14T08:37:24.333Z,19.08
2023-09-14T08:39:52.776Z,20.20
2023-09-14T08:42:25.694Z,19.48
2023-09-14T08:44:54.183Z,17.20
2023-09-14T08:47:23.430Z,18.25
2023-09-14T08:49:52.146Z,18.30
2023-09-14T08:52:19.930Z,20.17
2023-09-14T08:54:47.041Z,20.80
2023-09-14T08:57:14.211Z,20.73
2023-09-14T08:59:41.374Z,19.23
2023-09-14T09:02:14.013Z,19.25
2023-09-14T09:04:40.949Z,19.00
2023-09-14T09:07:08.769Z,20.05
2023-09-14T09:09:37.213Z,20.05
2023-09-14T09:12:04.312Z,21.02
2023-09-14T09:14:38.453Z,22.48
2023-09-14T09:17:05.577Z,21.75
2023-09-14T09:19:50.925Z,22.13
2023-09-14T09:22:18.701Z,21.35
2023-09-14T09:24:46.180Z,21.40
2023-09-14T09:27:28.520Z,20.45
2023-09-14T09:29:59.589Z,21.00
2023-09-14T09:32:26.666Z,21.75
2023-09-14T09:34:53.572Z,22.98
2023-09-14T09:37:20.520Z,23.88
2023-09-14T09:39:48.415Z,22.77
2023-09-14T09:42:15.444Z,23.98
2023-09-14T09:44:42.394Z,23.08
2023-09-14T09:47:13.540Z,21.90
2023-09-14T09:52:12.125Z,20.67
2023-09-14T09:54:39.050Z,22.38
2023-09-14T09:57:06.040Z,22.33
2023-09-14T09:59:33.322Z,22.67
2023-09-14T10:02:00.169Z,22.52
2023-09-14T10:04:29.958Z,21.02
2023-09-14T10:06:57.145Z,18.08
2023-09-14T10:09:27.038Z,17.73
2023-09-14T10:11:58.083Z,17.75
2023-09-14T10:14:28.618Z,18.13
2023-09-14T10:16:56.766Z,15.90
2023-09-14T10:19:25.544Z,16.00
2023-09-14T10:21:56.158Z,16.92
2023-09-14T10:24:25.641Z,16.77
2023-09-14T10:26:53.473Z,15.00
2023-09-14T10:29:22.489Z,16.50
2023-09-14T10:31:51.868Z,18.35
2023-09-14T10:34:18.803Z,20.08
2023-09-14T10:36:47.832Z,19.60
2023-09-14T10:39:18.600Z,18.10
2023-09-14T10:41:46.468Z,18.40
2023-09-14T10:44:15.733Z,16.98
2023-09-14T10:46:44.915Z,14.80
2023-09-14T10:49:11.942Z,16.27
2023-09-14T10:51:38.975Z,15.15
2023-09-14T10:54:06.127Z,15.30
2023-09-14T10:56:33.909Z,14.43
2023-09-14T10:59:10.131Z,15.63
2023-09-14T11:01:54.501Z,14.43
2023-09-14T11:04:22.821Z,15.48
2023-09-14T11:06:57.153Z,13.25
2023-09-14T11:09:25.501Z,13.27
2023-09-14T11:11:54.916Z,13.43
2023-09-14T11:14:26.084Z,11.82
2023-09-14T11:16:56.963Z,13.13
2023-09-14T11:19:48.041Z,13.23
2023-09-14T11:22:27.837Z,12.80
2023-09-14T11:24:56.473Z,13.38
2023-09-14T11:27:25.710Z,12.65
2023-09-14T11:29:56.444Z,11.77
2023-09-14T11:32:30.451Z,10.75
2023-09-14T11:35:03.695Z,8.95
2023-09-14T11:37:39.164Z,9.18
2023-09-14T11:40:21.156Z,8.95
2023-09-14T11:43:16.776Z,7.88
2023-09-14T11:45:48.074Z,7.60
2023-09-14T11:50:49.456Z,7.60
2023-09-14T11:53:19.447Z,7.15
2023-09-14T11:55:48.286Z,5.80
2023-09-14T11:58:15.684Z,6.53
2023-09-14T12:00:46.425Z,7.75
2023-09-14T12:03:13.405Z,8.15
2023-09-14T12:05:40.304Z,8.20
2023-09-14T12:08:15.462Z,7.40
2023-09-14T12:10:43.744Z,6.80
2023-09-14T12:13:18.049Z,6.32
2023-09-14T12:15:47.219Z,10.18
2023-09-14T12:18:17.890Z,10.40
2023-09-14T12:20:46.814Z,10.27
2023-09-14T12:23:14.674Z,9.05
2023-09-14T12:25:42.638Z,6.97
2023-09-14T12:28:10.402Z,7.53
2023-09-14T12:30:38.865Z,7.78
2023-09-14T12:33:07.953Z,6.63
2023-09-14T12:35:34.937Z,6.28
2023-09-14T12:38:06.356Z,6.28
2023-09-14T12:40:37.904Z,7.18
2023-09-14T12:43:05.693Z,7.15
2023-09-14T12:45:36.598Z,7.00
2023-09-14T12:48:08.533Z,7.53
2023-09-14T12:50:38.915Z,7.60
2023-09-14T12:53:10.416Z,7.67
2023-09-14T12:55:43.886Z,9.90
2023-09-14T12:58:11.364Z,9.68
2023-09-14T13:00:40.235Z,12.65
2023-09-14T13:03:10.889Z,15.43
2023-09-14T13:05:37.925Z,15.25
2023-09-14T13:08:08.213Z,15.32
2023-09-14T13:10:42.335Z,14.40
2023-09-14T13:13:12.024Z,12.57
2023-09-14T13:15:46.406Z,11.90
2023-09-14T13:18:18.604Z,12.00
2023-09-14T13:20:50.732Z,10.63
2023-09-14T13:23:18.785Z,12.90
2023-09-14T13:25:45.666Z,12.35
2023-09-14T13:28:12.878Z,12.30
2023-09-14T13:30:40.258Z,11.90
2023-09-14T13:33:08.079Z,11.57
2023-09-14T13:35:35.056Z,11.48
2023-09-14T13:38:01.988Z,10.43
2023-09-14T13:40:29.655Z,11.80
2023-09-14T13:42:59.119Z,11.73
2023-09-14T13:45:28.151Z,11.88
2023-09-14T13:47:55.197Z,11.68
2023-09-14T13:50:23.311Z,10.80
2023-09-14T13:52:51.954Z,10.63
2023-09-14T13:55:18.987Z,11.50
2023-09-14T13:57:47.442Z,12.77
2023-09-14T14:00:16.216Z,12.77
2023-09-14T14:02:57.531Z,14.18
2023-09-14T14:07:51.117Z,13.23
2023-09-14T14:10:17.974Z,13.63
2023-09-14T14:12:44.971Z,13.13
2023-09-14T14:15:13.396Z,12.85
2023-09-14T14:17:41.455Z,11.45
2023-09-14T14:20:10.169Z,12.50
2023-09-14T14:22:37.273Z,11.85
2023-09-14T14:25:05.352Z,12.43
2023-09-14T14:27:34.089Z,12.60
2023-09-14T14:30:01.076Z,12.57
2023-09-14T14:32:29.410Z,12.52
2023-09-14T14:34:56.621Z,12.30
2023-09-14T14:37:23.721Z,11.90
2023-09-14T14:39:52.236Z,11.77
2023-09-14T14:42:19.672Z,12.15
2023-09-14T14:44:48.027Z,12.13
2023-09-14T14:47:16.475Z,12.30
2023-09-14T14:49:43.360Z,12.00
2023-09-14T14:52:10.183Z,11.63
2023-09-14T14:54:37.083Z,13.00
2023-09-14T14:57:04.365Z,12.70
2023-09-14T14:59:32.562Z,12.15
2023-09-14T15:01:59.579Z,12.35
2023-09-14T15:04:26.443Z,12.82
2023-09-14T15:06:53.325Z,13.57
2023-09-14T15:09:20.154Z,13.52
2023-09-14T15:11:47.033Z,13.02
2023-09-14T15:14:13.871Z,13.40
2023-09-14T15:16:40.776Z,13.23
2023-09-14T15:19:07.753Z,13.50
2023-09-14T15:21:34.587Z,14.40
2023-09-14T15:24:01.486Z,13.30
2023-09-14T15:26:28.385Z,14.85
2023-09-14T15:28:57.983Z,15.20
2023-09-14T15:31:24.953Z,14.25
2023-09-14T15:33:52.052Z,14.80
2023-09-14T15:36:18.977Z,17.38
2023-09-14T15:38:46.609Z,16.65
2023-09-14T15:41:13.987Z,12.95
2023-09-14T15:43:42.495Z,14.20
2023-09-14T15:46:13.119Z,13.32
2023-09-14T15:48:41.834Z,13.90
2023-09-14T15:51:08.812Z,13.23
2023-09-14T15:53:37.669Z,14.15
2023-09-14T15:56:06.471Z,12.88
2023-09-14T15:58:33.920Z,13.70
2023-09-14T16:01:02.318Z,14.43
2023-09-14T16:03:29.549Z,14.90
2023-09-14T16:05:58.935Z,14.77
2023-09-14T16:08:25.907Z,13.77
2023-09-14T16:10:52.929Z,14.38
2023-09-14T16:13:19.862Z,14.23
2023-09-14T16:15:52.096Z,14.98
2023-09-14T16:18:19.925Z,13.75
2023-09-14T16:20:48.846Z,13.27
2023-09-14T16:23:16.041Z,13.35
2023-09-14T16:25:42.966Z,12.32
2023-09-14T16:28:12.664Z,13.20
2023-09-14T16:30:41.356Z,13.65
2023-09-14T16:33:08.493Z,13.57
2023-09-14T16:35:39.658Z,13.30
2023-09-14T16:38:06.506Z,13.75
2023-09-14T16:40:33.872Z,13.02
2023-09-14T16:43:01.182Z,13.02
2023-09-14T16:45:28.193Z,13.55
2023-09-14T16:47:57.052Z,13.63
2023-09-14T16:50:24.295Z,12.63
2023-09-14T16:52:52.444Z,13.00
2023-09-14T16:55:21.358Z,14.38
2023-09-14T16:57:50.535Z,13.20
2023-09-14T17:00:17.805Z,12.70
2023-09-14T17:02:44.724Z,13.98
2023-09-14T17:05:11.718Z,13.88
2023-09-14T17:07:40.614Z,13.60
2023-09-14T17:10:08.146Z,14.10
2023-09-14T17:12:35.258Z,14.27
2023-09-14T17:15:02.797Z,13.48
2023-09-14T17:17:29.986Z,13.98
2023-09-14T17:19:56.982Z,15.18
2023-09-14T17:22:25.859Z,15.40
2023-09-14T17:24:53.000Z,16.48
2023-09-14T17:27:20.287Z,15.73
2023-09-14T17:29:48.126Z,14.75
2023-09-14T17:32:15.057Z,14.73
2023-09-14T17:34:42.489Z,15.55
2023-09-14T17:37:09.319Z,15.93
2023-09-14T17:39:36.514Z,15.05
2023-09-14T17:42:04.484Z,14.77
2023-09-14T17:44:31.541Z,14.13
2023-09-14T17:46:58.472Z,14.82
2023-09-14T17:49:25.414Z,15.05
2023-09-14T17:51:52.277Z,14.60
2023-09-14T17:54:19.212Z,14.57
2023-09-14T17:56:46.065Z,14.30
2023-09-14T17:59:13.104Z,14.20
2023-09-14T18:01:40.075Z,14.68
2023-09-14T18:04:07.330Z,14.35
2023-09-14T18:06:34.363Z,14.88
2023-09-14T18:09:01.352Z,13.15
2023-09-14T18:11:28.768Z,13.43
2023-09-14T18:13:55.731Z,13.45
2023-09-14T18:16:23.465Z,14.13
2023-09-14T18:18:50.463Z,13.95
2023-09-14T18:21:17.720Z,13.13
2023-09-14T18:23:45.713Z,14.43
2023-09-14T18:26:12.894Z,13.23
2023-09-14T18:28:39.757Z,14.13
2023-09-14T18:31:06.708Z,15.05
2023-09-14T18:33:34.771Z,15.07
2023-09-14T18:36:02.598Z,14.75
2023-09-14T18:38:29.512Z,14.93
2023-09-14T18:41:03.920Z,13.30
2023-09-14T18:43:31.110Z,13.80
2023-09-14T18:45:58.853Z,12.82
2023-09-14T18:48:26.111Z,13.60
2023-09-14T18:51:03.882Z,13.57
2023-09-14T18:53:32.590Z,12.32
2023-09-14T18:56:00.204Z,12.32
2023-09-14T19:00:57.594Z,11.68
2023-09-14T19:03:25.663Z,11.25
2023-09-14T19:05:55.379Z,11.18
2023-09-14T19:08:22.894Z,10.07
2023-09-14T19:10:54.114Z,10.65
2023-09-14T19:13:21.308Z,10.30
2023-09-14T19:15:49.141Z,9.35
2023-09-14T19:18:16.021Z,8.77
2023-09-14T19:20:46.356Z,8.95
2023-09-14T19:23:14.150Z,9.40
2023-09-14T19:25:41.461Z,10.15
2023-09-14T19:28:09.506Z,8.27
2023-09-14T19:30:38.112Z,7.90
2023-09-14T19:33:06.119Z,8.55
2023-09-14T19:35:33.153Z,9.23
2023-09-14T19:38:00.223Z,9.57
2023-09-14T19:40:28.133Z,8.70
2023-09-14T19:42:56.190Z,8.27
2023-09-14T19:45:23.813Z,7.43
2023-09-14T19:47:50.810Z,7.20
2023-09-14T19:50:17.917Z,6.65
2023-09-14T19:52:44.896Z,7.00
2023-09-14T19:55:11.769Z,8.27
2023-09-14T19:57:38.981Z,8.68
2023-09-14T20:00:06.968Z,9.43
2023-09-14T20:02:33.897Z,9.65
2023-09-14T20:05:00.838Z,9.38
2023-09-14T20:07:27.679Z,8.70
2023-09-14T20:09:54.598Z,8.98
2023-09-14T20:12:21.620Z,9.20
2023-09-14T20:14:48.711Z,9.07
2023-09-14T20:17:17.242Z,9.20
2023-09-14T20:19:44.932Z,8.80
2023-09-14T20:22:12.405Z,9.07
2023-09-14T20:24:40.401Z,8.70
2023-09-14T20:27:08.137Z,8.07
2023-09-14T20:29:36.029Z,7.82
2023-09-14T20:32:03.946Z,8.35
2023-09-14T20:34:30.793Z,7.70
2023-09-14T20:36:57.832Z,7.90
2023-09-14T20:39:29.706Z,7.75
2023-09-14T20:41:57.525Z,7.90
2023-09-14T20:44:25.480Z,7.80
2023-09-14T20:46:52.505Z,7.18
2023-09-14T20:49:22.349Z,7.75
2023-09-14T20:51:49.633Z,6.80
2023-09-14T20:54:20.990Z,6.68
2023-09-14T20:56:48.385Z,6.38
2023-09-14T20:59:17.341Z,6.35
2023-09-14T21:01:46.519Z,5.88
2023-09-14T21:04:13.517Z,5.78
2023-09-14T21:06:41.422Z,5.78
2023-09-14T21:09:08.520Z,5.85
2023-09-14T21:11:38.281Z,5.28
2023-09-14T21:14:08.414Z,5.72
2023-09-14T21:16:36.325Z,5.07
2023-09-14T21:19:03.519Z,6.15
2023-09-14T21:21:30.522Z,5.80
2023-09-14T21:23:57.384Z,5.50
2023-09-14T21:26:24.212Z,5.78
2023-09-14T21:28:51.117Z,6.60
2023-09-14T21:31:18.654Z,6.40
2023-09-14T21:33:45.724Z,6.30
2023-09-14T21:36:12.785Z,6.75
2023-09-14T21:38:40.399Z,7.03
2023-09-14T21:41:07.791Z,6.80
2023-09-14T21:43:37.489Z,7.88
2023-09-14T21:46:07.069Z,8.50
2023-09-14T21:48:34.981Z,10.30
2023-09-14T21:51:02.546Z,9.88
2023-09-14T21:53:30.022Z,10.00
2023-09-14T21:55:57.221Z,9.40
2023-09-14T21:58:25.338Z,7.85
2023-09-14T22:00:53.137Z,8.10
2023-09-14T22:03:20.528Z,7.57
2023-09-14T22:05:51.503Z,7.25
2023-09-14T22:08:19.359Z,6.40
2023-09-14T22:10:47.377Z,5.47
2023-09-14T22:13:15.098Z,5.28
2023-09-14T22:15:44.561Z,4.22
2023-09-14T22:18:15.754Z,4.70
2023-09-14T22:20:45.256Z,5.95
2023-09-14T22:23:12.241Z,6.03
2023-09-14T22:25:40.277Z,6.40
2023-09-14T22:28:07.847Z,5.72
2023-09-14T22:30:36.763Z,5.90
2023-09-14T22:33:05.271Z,5.18
2023-09-14T22:35:32.965Z,8.18
2023-09-14T22:37:59.997Z,10.38
2023-09-14T22:40:26.939Z,9.75
2023-09-14T22:42:53.881Z,10.15
2023-09-14T22:45:22.125Z,10.18
2023-09-14T22:47:50.100Z,11.07
2023-09-14T22:50:17.563Z,11.43
2023-09-14T22:52:45.113Z,10.18
2023-09-14T22:55:16.919Z,7.93
2023-09-14T22:57:44.412Z,7.32
2023-09-14T23:00:12.073Z,7.22
2023-09-14T23:02:40.065Z,7.30
2023-09-14T23:05:12.223Z,5.30
2023-09-14T23:07:41.329Z,5.22
2023-09-14T23:10:11.598Z,7.25
2023-09-14T23:12:41.699Z,7.25
2023-09-14T23:15:10.448Z,7.53
2023-09-14T23:17:41.611Z,7.65
2023-09-14T23:20:20.609Z,7.18
2023-09-14T23:22:47.467Z,7.90
2023-09-14T23:25:16.243Z,7.90
2023-09-14T23:27:46.320Z,7.20
2023-09-14T23:30:21.489Z,7.20
2023-09-14T23:32:50.002Z,6.88
2023-09-14T23:35:20.819Z,7.35
2023-09-14T23:37:47.818Z,7.18
2023-09-14T23:40:26.714Z,7.47
2023-09-14T23:42:54.374Z,7.20
2023-09-14T23:45:25.688Z,7.28
2023-09-14T23:47:52.837Z,7.55
2023-09-14T23:50:19.683Z,7.50
2023-09-14T23:52:46.566Z,6.57
2023-09-14T23:55:14.696Z,6.32
2023-09-14T23:57:41.845Z,5.57
